sensor_id;sensor_type;location;lat;lon;timestamp;pressure;altitude;pressure_sealevel;temperature;humidity
37170;BME280;23062;13.952;100.608;2022-07-29T00:02:55;1006.54;;;29.93;100.00
37170;BME280;23062;13.952;100.608;2022-07-29T00:07:45;1006.67;;;29.95;100.00
37170;BME280;23062;13.952;100.608;2022-07-29T00:12:35;1006.62;;;29.97;100.00
37170;BME280;23062;13.952;100.608;2022-07-29T00:17:26;1006.73;;;29.97;100.00
37170;BME280;23062;13.952;100.608;2022-07-29T00:22:16;1006.78;;;29.97;100.00
37170;BME280;23062;13.952;100.608;2022-07-29T00:27:06;1006.85;;;29.90;100.00
37170;BME280;23062;13.952;100.608;2022-07-29T00:31:55;1006.91;;;29.90;100.00
37170;BME280;23062;13.952;100.608;2022-07-29T00:36:45;1006.94;;;29.80;100.00
37170;BME280;23062;13.952;100.608;2022-07-29T00:41:35;1007.02;;;29.83;100.00
37170;BME280;23062;13.952;100.608;2022-07-29T00:46:24;1007.07;;;29.88;100.00
37170;BME280;23062;13.952;100.608;2022-07-29T00:51:16;1007.09;;;30.01;100.00
37170;BME280;23062;13.952;100.608;2022-07-29T00:56:05;1007.17;;;30.07;100.00
37170;BME280;23062;13.952;100.608;2022-07-29T01:00:55;1007.20;;;30.16;100.00
37170;BME280;23062;13.952;100.608;2022-07-29T01:05:46;1007.17;;;30.18;100.00
37170;BME280;23062;13.952;100.608;2022-07-29T01:10:38;1007.08;;;30.25;100.00
37170;BME280;23062;13.952;100.608;2022-07-29T01:15:28;1006.97;;;30.27;100.00
37170;BME280;23062;13.952;100.608;2022-07-29T01:25:46;1006.97;;;30.26;100.00
37170;BME280;23062;13.952;100.608;2022-07-29T01:30:36;1007.02;;;30.29;100.00
37170;BME280;23062;13.952;100.608;2022-07-29T01:35:30;1006.96;;;30.35;100.00
37170;BME280;23062;13.952;100.608;2022-07-29T01:45:33;1007.12;;;30.37;100.00
37170;BME280;23062;13.952;100.608;2022-07-29T01:50:21;1007.17;;;30.39;100.00
37170;BME280;23062;13.952;100.608;2022-07-29T01:55:13;1007.24;;;30.45;100.00
37170;BME280;23062;13.952;100.608;2022-07-29T02:00:05;1007.21;;;30.51;100.00
37170;BME280;23062;13.952;100.608;2022-07-29T02:04:57;1007.20;;;30.54;100.00
37170;BME280;23062;13.952;100.608;2022-07-29T02:09:50;1007.18;;;30.62;100.00
37170;BME280;23062;13.952;100.608;2022-07-29T02:14:42;1007.18;;;30.69;100.00
37170;BME280;23062;13.952;100.608;2022-07-29T02:19:33;1007.18;;;30.73;100.00
37170;BME280;23062;13.952;100.608;2022-07-29T02:24:24;1007.23;;;30.73;100.00
37170;BME280;23062;13.952;100.608;2022-07-29T02:29:15;1007.21;;;30.64;100.00
37170;BME280;23062;13.952;100.608;2022-07-29T02:34:08;1007.22;;;30.60;100.00
37170;BME280;23062;13.952;100.608;2022-07-29T02:39:00;1007.18;;;30.58;100.00
37170;BME280;23062;13.952;100.608;2022-07-29T02:44:02;1007.19;;;30.52;100.00
37170;BME280;23062;13.952;100.608;2022-07-29T02:49:04;1007.22;;;30.50;100.00
37170;BME280;23062;13.952;100.608;2022-07-29T02:53:53;1007.24;;;30.44;100.00
37170;BME280;23062;13.952;100.608;2022-07-29T02:58:47;1007.23;;;30.40;100.00
37170;BME280;23062;13.952;100.608;2022-07-29T03:03:37;1007.16;;;30.42;100.00
37170;BME280;23062;13.952;100.608;2022-07-29T03:08:28;1007.19;;;30.47;100.00
37170;BME280;23062;13.952;100.608;2022-07-29T03:13:20;1007.06;;;30.42;100.00
37170;BME280;23062;13.952;100.608;2022-07-29T03:18:10;1007.18;;;30.52;100.00
37170;BME280;23062;13.952;100.608;2022-07-29T03:23:02;1007.22;;;30.54;100.00
37170;BME280;23062;13.952;100.608;2022-07-29T03:27:52;1007.09;;;30.58;100.00
37170;BME280;23062;13.952;100.608;2022-07-29T03:32:41;1007.05;;;30.64;100.00
37170;BME280;23062;13.952;100.608;2022-07-29T03:37:31;1007.01;;;30.67;100.00
37170;BME280;23062;13.952;100.608;2022-07-29T03:42:22;1006.93;;;30.70;100.00
37170;BME280;23062;13.952;100.608;2022-07-29T03:47:13;1006.83;;;30.73;100.00
37170;BME280;23062;13.952;100.608;2022-07-29T03:52:04;1006.77;;;30.77;100.00
37170;BME280;23062;13.952;100.608;2022-07-29T03:56:55;1006.74;;;30.82;100.00
37170;BME280;23062;13.952;100.608;2022-07-29T04:01:47;1006.68;;;30.85;100.00
37170;BME280;23062;13.952;100.608;2022-07-29T04:06:41;1006.67;;;30.90;100.00
37170;BME280;23062;13.952;100.608;2022-07-29T04:11:33;1006.60;;;30.93;100.00
37170;BME280;23062;13.952;100.608;2022-07-29T04:16:23;1006.53;;;30.95;100.00
37170;BME280;23062;13.952;100.608;2022-07-29T04:21:13;1006.58;;;30.90;100.00
37170;BME280;23062;13.952;100.608;2022-07-29T04:26:04;1006.53;;;30.98;100.00
37170;BME280;23062;13.952;100.608;2022-07-29T04:30:53;1006.54;;;31.01;99.30
37170;BME280;23062;13.952;100.608;2022-07-29T04:35:42;1006.53;;;31.02;98.42
37170;BME280;23062;13.952;100.608;2022-07-29T04:40:32;1006.51;;;31.14;96.15
37170;BME280;23062;13.952;100.608;2022-07-29T04:45:22;1006.26;;;31.04;94.19
37170;BME280;23062;13.952;100.608;2022-07-29T04:50:12;1006.37;;;31.14;93.37
37170;BME280;23062;13.952;100.608;2022-07-29T04:55:03;1006.36;;;31.21;93.88
37170;BME280;23062;13.952;100.608;2022-07-29T04:59:52;1006.15;;;31.18;91.28
37170;BME280;23062;13.952;100.608;2022-07-29T05:04:43;1006.17;;;31.40;86.37
37170;BME280;23062;13.952;100.608;2022-07-29T05:09:33;1006.22;;;31.36;85.91
37170;BME280;23062;13.952;100.608;2022-07-29T05:14:24;1006.15;;;31.30;87.06
37170;BME280;23062;13.952;100.608;2022-07-29T05:19:14;1006.15;;;31.29;87.51
37170;BME280;23062;13.952;100.608;2022-07-29T05:24:04;1006.07;;;31.31;87.03
37170;BME280;23062;13.952;100.608;2022-07-29T05:28:53;1005.97;;;31.40;84.06
37170;BME280;23062;13.952;100.608;2022-07-29T05:33:43;1005.92;;;31.23;87.41
37170;BME280;23062;13.952;100.608;2022-07-29T05:38:33;1005.84;;;31.22;87.27
37170;BME280;23062;13.952;100.608;2022-07-29T05:43:22;1005.76;;;31.24;87.74
37170;BME280;23062;13.952;100.608;2022-07-29T05:48:12;1005.66;;;31.29;84.62
37170;BME280;23062;13.952;100.608;2022-07-29T05:53:02;1005.46;;;31.33;82.93
37170;BME280;23062;13.952;100.608;2022-07-29T05:57:55;1005.38;;;31.41;81.47
37170;BME280;23062;13.952;100.608;2022-07-29T06:02:44;1005.30;;;31.49;78.72
37170;BME280;23062;13.952;100.608;2022-07-29T06:07:35;1005.17;;;31.48;79.17
37170;BME280;23062;13.952;100.608;2022-07-29T06:12:25;1005.06;;;31.51;79.13
37170;BME280;23062;13.952;100.608;2022-07-29T06:17:15;1005.05;;;31.55;79.33
37170;BME280;23062;13.952;100.608;2022-07-29T06:22:05;1004.97;;;31.48;80.03
37170;BME280;23062;13.952;100.608;2022-07-29T06:26:54;1004.82;;;31.51;78.56
37170;BME280;23062;13.952;100.608;2022-07-29T06:31:46;1004.78;;;31.65;76.97
37170;BME280;23062;13.952;100.608;2022-07-29T06:36:37;1004.69;;;31.54;76.56
37170;BME280;23062;13.952;100.608;2022-07-29T06:41:26;1004.66;;;31.60;76.31
37170;BME280;23062;13.952;100.608;2022-07-29T06:46:16;1004.65;;;31.55;77.31
37170;BME280;23062;13.952;100.608;2022-07-29T06:51:07;1004.60;;;31.55;77.51
37170;BME280;23062;13.952;100.608;2022-07-29T06:55:58;1004.47;;;31.52;77.96
37170;BME280;23062;13.952;100.608;2022-07-29T07:00:48;1004.36;;;31.55;77.72
37170;BME280;23062;13.952;100.608;2022-07-29T07:05:38;1004.25;;;31.54;76.88
37170;BME280;23062;13.952;100.608;2022-07-29T07:10:28;1004.13;;;31.53;77.19
37170;BME280;23062;13.952;100.608;2022-07-29T07:15:18;1003.98;;;31.54;77.79
37170;BME280;23062;13.952;100.608;2022-07-29T07:20:10;1003.85;;;31.56;77.60
37170;BME280;23062;13.952;100.608;2022-07-29T07:25:00;1003.69;;;31.49;77.93
37170;BME280;23062;13.952;100.608;2022-07-29T07:29:50;1003.75;;;31.59;78.15
37170;BME280;23062;13.952;100.608;2022-07-29T07:34:39;1003.67;;;31.54;78.40
37170;BME280;23062;13.952;100.608;2022-07-29T07:39:29;1003.67;;;31.60;77.29
37170;BME280;23062;13.952;100.608;2022-07-29T07:44:18;1003.58;;;31.56;77.18
37170;BME280;23062;13.952;100.608;2022-07-29T07:49:09;1003.49;;;31.53;77.27
37170;BME280;23062;13.952;100.608;2022-07-29T07:53:59;1003.41;;;31.59;76.87
37170;BME280;23062;13.952;100.608;2022-07-29T07:58:48;1003.29;;;31.60;76.44
37170;BME280;23062;13.952;100.608;2022-07-29T08:03:39;1003.19;;;31.60;76.63
37170;BME280;23062;13.952;100.608;2022-07-29T08:08:28;1003.12;;;31.62;77.12
37170;BME280;23062;13.952;100.608;2022-07-29T08:13:22;1003.03;;;31.60;77.36
37170;BME280;23062;13.952;100.608;2022-07-29T08:18:13;1002.97;;;31.64;76.43
37170;BME280;23062;13.952;100.608;2022-07-29T08:23:03;1002.88;;;31.71;75.30
37170;BME280;23062;13.952;100.608;2022-07-29T08:27:54;1002.82;;;31.79;73.94
37170;BME280;23062;13.952;100.608;2022-07-29T08:32:44;1002.88;;;31.77;73.32
37170;BME280;23062;13.952;100.608;2022-07-29T08:37:35;1002.88;;;31.85;74.56
37170;BME280;23062;13.952;100.608;2022-07-29T08:42:25;1002.72;;;31.84;77.95
37170;BME280;23062;13.952;100.608;2022-07-29T08:47:17;1002.73;;;31.93;80.04
37170;BME280;23062;13.952;100.608;2022-07-29T08:52:10;1002.69;;;31.89;82.10
37170;BME280;23062;13.952;100.608;2022-07-29T08:56:59;1002.73;;;31.89;84.21
37170;BME280;23062;13.952;100.608;2022-07-29T09:01:49;1002.56;;;31.80;88.99
37170;BME280;23062;13.952;100.608;2022-07-29T09:06:44;1002.55;;;31.58;97.24
37170;BME280;23062;13.952;100.608;2022-07-29T09:11:34;1002.66;;;31.35;100.00
37170;BME280;23062;13.952;100.608;2022-07-29T09:16:24;1002.80;;;31.36;100.00
37170;BME280;23062;13.952;100.608;2022-07-29T09:21:15;1002.80;;;31.41;100.00
37170;BME280;23062;13.952;100.608;2022-07-29T09:26:23;1002.79;;;31.31;100.00
37170;BME280;23062;13.952;100.608;2022-07-29T09:31:13;1002.88;;;31.25;100.00
37170;BME280;23062;13.952;100.608;2022-07-29T09:36:07;1002.89;;;31.18;100.00
37170;BME280;23062;13.952;100.608;2022-07-29T09:41:02;1002.79;;;31.06;100.00
37170;BME280;23062;13.952;100.608;2022-07-29T09:45:52;1002.77;;;31.02;100.00
37170;BME280;23062;13.952;100.608;2022-07-29T09:50:43;1002.77;;;31.11;100.00
37170;BME280;23062;13.952;100.608;2022-07-29T09:55:40;1002.79;;;31.09;100.00
37170;BME280;23062;13.952;100.608;2022-07-29T10:00:26;1002.80;;;31.10;100.00
37170;BME280;23062;13.952;100.608;2022-07-29T10:05:25;1002.90;;;31.05;100.00
37170;BME280;23062;13.952;100.608;2022-07-29T10:10:26;1002.82;;;30.84;100.00
37170;BME280;23062;13.952;100.608;2022-07-29T10:15:12;1002.80;;;30.88;100.00
37170;BME280;23062;13.952;100.608;2022-07-29T10:20:02;1002.78;;;30.83;100.00
37170;BME280;23062;13.952;100.608;2022-07-29T10:24:52;1002.76;;;30.80;100.00
37170;BME280;23062;13.952;100.608;2022-07-29T10:29:42;1002.85;;;30.77;100.00
37170;BME280;23062;13.952;100.608;2022-07-29T10:45:19;1002.93;;;30.74;100.00
37170;BME280;23062;13.952;100.608;2022-07-29T10:50:08;1002.86;;;30.75;100.00
37170;BME280;23062;13.952;100.608;2022-07-29T10:54:58;1002.92;;;30.82;100.00
37170;BME280;23062;13.952;100.608;2022-07-29T10:59:51;1003.06;;;30.81;100.00
37170;BME280;23062;13.952;100.608;2022-07-29T11:09:40;1003.28;;;30.81;100.00
37170;BME280;23062;13.952;100.608;2022-07-29T11:14:57;1003.40;;;30.82;100.00
37170;BME280;23062;13.952;100.608;2022-07-29T11:19:48;1003.44;;;30.85;100.00
37170;BME280;23062;13.952;100.608;2022-07-29T11:24:39;1003.57;;;30.89;100.00
37170;BME280;23062;13.952;100.608;2022-07-29T11:29:29;1003.72;;;30.93;100.00
37170;BME280;23062;13.952;100.608;2022-07-29T11:34:31;1003.82;;;30.94;100.00
37170;BME280;23062;13.952;100.608;2022-07-29T11:39:27;1003.78;;;30.93;100.00
37170;BME280;23062;13.952;100.608;2022-07-29T11:44:19;1003.78;;;30.98;100.00
37170;BME280;23062;13.952;100.608;2022-07-29T11:49:11;1003.89;;;30.99;100.00
37170;BME280;23062;13.952;100.608;2022-07-29T11:54:01;1003.97;;;30.87;100.00
37170;BME280;23062;13.952;100.608;2022-07-29T11:58:59;1004.00;;;30.84;100.00
37170;BME280;23062;13.952;100.608;2022-07-29T12:03:42;1004.08;;;30.88;100.00
37170;BME280;23062;13.952;100.608;2022-07-29T12:08:38;1004.14;;;30.87;100.00
37170;BME280;23062;13.952;100.608;2022-07-29T12:13:25;1004.23;;;30.86;100.00
37170;BME280;23062;13.952;100.608;2022-07-29T12:18:18;1004.22;;;30.95;100.00
37170;BME280;23062;13.952;100.608;2022-07-29T12:23:10;1004.25;;;31.00;100.00
37170;BME280;23062;13.952;100.608;2022-07-29T12:28:05;1004.45;;;31.02;100.00
37170;BME280;23062;13.952;100.608;2022-07-29T12:32:55;1004.47;;;31.02;100.00
37170;BME280;23062;13.952;100.608;2022-07-29T12:37:45;1004.57;;;31.08;100.00
37170;BME280;23062;13.952;100.608;2022-07-29T12:42:36;1004.56;;;31.10;100.00
37170;BME280;23062;13.952;100.608;2022-07-29T12:47:27;1004.54;;;31.09;100.00
37170;BME280;23062;13.952;100.608;2022-07-29T12:52:31;1004.73;;;31.11;100.00
37170;BME280;23062;13.952;100.608;2022-07-29T12:57:21;1004.72;;;31.07;100.00
37170;BME280;23062;13.952;100.608;2022-07-29T13:02:25;1004.79;;;31.07;100.00
37170;BME280;23062;13.952;100.608;2022-07-29T13:07:17;1005.03;;;31.10;100.00
37170;BME280;23062;13.952;100.608;2022-07-29T13:12:10;1005.26;;;31.18;100.00
37170;BME280;23062;13.952;100.608;2022-07-29T13:17:19;1005.38;;;31.20;100.00
37170;BME280;23062;13.952;100.608;2022-07-29T13:22:14;1005.43;;;31.24;99.65
37170;BME280;23062;13.952;100.608;2022-07-29T13:27:05;1005.41;;;31.20;100.00
37170;BME280;23062;13.952;100.608;2022-07-29T13:31:54;1005.52;;;31.17;99.19
37170;BME280;23062;13.952;100.608;2022-07-29T13:36:45;1005.59;;;31.15;99.64
37170;BME280;23062;13.952;100.608;2022-07-29T13:41:34;1005.60;;;31.14;98.92
37170;BME280;23062;13.952;100.608;2022-07-29T13:46:24;1005.69;;;31.13;98.89
37170;BME280;23062;13.952;100.608;2022-07-29T13:51:14;1005.80;;;31.12;97.96
37170;BME280;23062;13.952;100.608;2022-07-29T13:56:04;1005.70;;;31.11;98.08
37170;BME280;23062;13.952;100.608;2022-07-29T14:00:56;1005.80;;;31.10;98.46
37170;BME280;23062;13.952;100.608;2022-07-29T14:05:46;1005.90;;;31.07;98.87
37170;BME280;23062;13.952;100.608;2022-07-29T14:10:36;1005.95;;;31.06;99.27
37170;BME280;23062;13.952;100.608;2022-07-29T14:15:25;1006.15;;;31.05;99.18
37170;BME280;23062;13.952;100.608;2022-07-29T14:20:16;1006.29;;;31.07;98.58
37170;BME280;23062;13.952;100.608;2022-07-29T14:25:06;1006.27;;;31.04;99.35
37170;BME280;23062;13.952;100.608;2022-07-29T14:29:56;1006.32;;;31.01;99.47
37170;BME280;23062;13.952;100.608;2022-07-29T14:34:47;1006.36;;;30.98;99.39
37170;BME280;23062;13.952;100.608;2022-07-29T14:39:37;1006.42;;;31.00;99.35
37170;BME280;23062;13.952;100.608;2022-07-29T14:44:28;1006.41;;;31.01;99.24
37170;BME280;23062;13.952;100.608;2022-07-29T14:49:19;1006.35;;;30.97;99.85
37170;BME280;23062;13.952;100.608;2022-07-29T14:54:10;1006.39;;;30.97;100.00
37170;BME280;23062;13.952;100.608;2022-07-29T14:58:59;1006.44;;;30.93;100.00
37170;BME280;23062;13.952;100.608;2022-07-29T15:03:50;1006.33;;;30.88;100.00
37170;BME280;23062;13.952;100.608;2022-07-29T15:08:39;1006.37;;;30.93;99.94
37170;BME280;23062;13.952;100.608;2022-07-29T15:13:29;1006.38;;;30.93;99.90
37170;BME280;23062;13.952;100.608;2022-07-29T15:18:19;1006.52;;;30.92;100.00
37170;BME280;23062;13.952;100.608;2022-07-29T15:23:09;1006.49;;;30.87;100.00
37170;BME280;23062;13.952;100.608;2022-07-29T15:27:59;1006.47;;;30.97;99.30
37170;BME280;23062;13.952;100.608;2022-07-29T15:32:50;1006.48;;;30.88;100.00
37170;BME280;23062;13.952;100.608;2022-07-29T15:37:40;1006.44;;;30.85;100.00
37170;BME280;23062;13.952;100.608;2022-07-29T15:42:31;1006.46;;;30.82;100.00
37170;BME280;23062;13.952;100.608;2022-07-29T15:47:21;1006.52;;;30.79;100.00
37170;BME280;23062;13.952;100.608;2022-07-29T15:52:11;1006.43;;;30.79;100.00
37170;BME280;23062;13.952;100.608;2022-07-29T15:57:01;1006.31;;;30.82;100.00
37170;BME280;23062;13.952;100.608;2022-07-29T16:01:52;1006.33;;;30.86;100.00
37170;BME280;23062;13.952;100.608;2022-07-29T16:06:44;1006.39;;;30.80;100.00
37170;BME280;23062;13.952;100.608;2022-07-29T16:11:34;1006.39;;;30.77;100.00
37170;BME280;23062;13.952;100.608;2022-07-29T16:16:24;1006.41;;;30.77;100.00
37170;BME280;23062;13.952;100.608;2022-07-29T16:21:14;1006.38;;;30.75;100.00
37170;BME280;23062;13.952;100.608;2022-07-29T16:26:05;1006.44;;;30.82;100.00
37170;BME280;23062;13.952;100.608;2022-07-29T16:30:55;1006.40;;;30.74;100.00
37170;BME280;23062;13.952;100.608;2022-07-29T16:35:44;1006.35;;;30.74;100.00
37170;BME280;23062;13.952;100.608;2022-07-29T16:40:34;1006.29;;;30.72;100.00
37170;BME280;23062;13.952;100.608;2022-07-29T16:45:25;1006.26;;;30.73;100.00
37170;BME280;23062;13.952;100.608;2022-07-29T16:50:14;1006.11;;;30.76;100.00
37170;BME280;23062;13.952;100.608;2022-07-29T16:55:05;1006.13;;;30.80;100.00
37170;BME280;23062;13.952;100.608;2022-07-29T16:59:55;1006.20;;;30.88;100.00
37170;BME280;23062;13.952;100.608;2022-07-29T17:04:45;1006.08;;;30.87;100.00
37170;BME280;23062;13.952;100.608;2022-07-29T17:09:35;1005.99;;;30.90;100.00
37170;BME280;23062;13.952;100.608;2022-07-29T17:14:26;1005.92;;;30.76;100.00
37170;BME280;23062;13.952;100.608;2022-07-29T17:19:17;1005.81;;;30.89;100.00
37170;BME280;23062;13.952;100.608;2022-07-29T17:24:07;1005.74;;;30.92;100.00
37170;BME280;23062;13.952;100.608;2022-07-29T17:28:57;1005.70;;;30.92;100.00
37170;BME280;23062;13.952;100.608;2022-07-29T17:33:47;1005.66;;;30.92;99.99
37170;BME280;23062;13.952;100.608;2022-07-29T17:38:36;1005.62;;;30.77;100.00
37170;BME280;23062;13.952;100.608;2022-07-29T17:43:26;1005.64;;;30.78;100.00
37170;BME280;23062;13.952;100.608;2022-07-29T17:48:16;1005.51;;;30.81;100.00
37170;BME280;23062;13.952;100.608;2022-07-29T17:53:07;1005.50;;;30.87;100.00
37170;BME280;23062;13.952;100.608;2022-07-29T17:57:57;1005.52;;;30.83;100.00
37170;BME280;23062;13.952;100.608;2022-07-29T18:02:47;1005.53;;;30.91;100.00
37170;BME280;23062;13.952;100.608;2022-07-29T18:07:37;1005.61;;;30.86;100.00
37170;BME280;23062;13.952;100.608;2022-07-29T18:12:27;1005.55;;;30.91;100.00
37170;BME280;23062;13.952;100.608;2022-07-29T18:17:16;1005.45;;;30.85;100.00
37170;BME280;23062;13.952;100.608;2022-07-29T18:22:06;1005.38;;;30.85;100.00
37170;BME280;23062;13.952;100.608;2022-07-29T18:26:57;1005.32;;;30.86;100.00
37170;BME280;23062;13.952;100.608;2022-07-29T18:31:46;1005.35;;;30.85;100.00
37170;BME280;23062;13.952;100.608;2022-07-29T18:36:36;1005.25;;;30.77;100.00
37170;BME280;23062;13.952;100.608;2022-07-29T18:41:26;1005.16;;;30.86;100.00
37170;BME280;23062;13.952;100.608;2022-07-29T18:46:15;1005.10;;;30.81;100.00
37170;BME280;23062;13.952;100.608;2022-07-29T18:51:05;1005.18;;;30.80;100.00
37170;BME280;23062;13.952;100.608;2022-07-29T18:55:55;1005.26;;;30.85;100.00
37170;BME280;23062;13.952;100.608;2022-07-29T19:00:45;1005.21;;;30.84;100.00
37170;BME280;23062;13.952;100.608;2022-07-29T19:05:35;1005.22;;;30.84;100.00
37170;BME280;23062;13.952;100.608;2022-07-29T19:10:25;1005.19;;;30.85;100.00
37170;BME280;23062;13.952;100.608;2022-07-29T19:15:15;1005.15;;;30.84;100.00
37170;BME280;23062;13.952;100.608;2022-07-29T19:20:06;1005.20;;;30.85;100.00
37170;BME280;23062;13.952;100.608;2022-07-29T19:24:57;1005.12;;;30.83;100.00
37170;BME280;23062;13.952;100.608;2022-07-29T19:29:46;1005.10;;;30.78;100.00
37170;BME280;23062;13.952;100.608;2022-07-29T19:34:37;1005.03;;;30.81;100.00
37170;BME280;23062;13.952;100.608;2022-07-29T19:39:29;1004.94;;;30.82;100.00
37170;BME280;23062;13.952;100.608;2022-07-29T19:44:18;1004.94;;;30.87;100.00
37170;BME280;23062;13.952;100.608;2022-07-29T19:49:08;1004.96;;;30.86;100.00
37170;BME280;23062;13.952;100.608;2022-07-29T19:54:00;1004.96;;;30.83;100.00
37170;BME280;23062;13.952;100.608;2022-07-29T19:58:49;1004.96;;;30.85;100.00
37170;BME280;23062;13.952;100.608;2022-07-29T20:03:39;1004.89;;;30.79;100.00
37170;BME280;23062;13.952;100.608;2022-07-29T20:08:29;1004.78;;;30.80;100.00
37170;BME280;23062;13.952;100.608;2022-07-29T20:13:20;1004.67;;;30.76;100.00
37170;BME280;23062;13.952;100.608;2022-07-29T20:18:10;1004.64;;;30.76;100.00
37170;BME280;23062;13.952;100.608;2022-07-29T20:23:01;1004.49;;;30.71;100.00
37170;BME280;23062;13.952;100.608;2022-07-29T20:27:52;1004.55;;;30.80;100.00
37170;BME280;23062;13.952;100.608;2022-07-29T20:32:42;1004.54;;;30.78;100.00
37170;BME280;23062;13.952;100.608;2022-07-29T20:37:32;1004.46;;;30.74;100.00
37170;BME280;23062;13.952;100.608;2022-07-29T20:42:27;1004.39;;;30.72;100.00
37170;BME280;23062;13.952;100.608;2022-07-29T20:47:13;1004.30;;;30.75;100.00
37170;BME280;23062;13.952;100.608;2022-07-29T20:52:03;1004.26;;;30.72;100.00
37170;BME280;23062;13.952;100.608;2022-07-29T20:56:53;1004.33;;;30.66;100.00
37170;BME280;23062;13.952;100.608;2022-07-29T21:01:44;1004.28;;;30.74;100.00
37170;BME280;23062;13.952;100.608;2022-07-29T21:06:34;1004.26;;;30.70;100.00
37170;BME280;23062;13.952;100.608;2022-07-29T21:11:23;1004.19;;;30.59;100.00
37170;BME280;23062;13.952;100.608;2022-07-29T21:16:14;1004.16;;;30.65;100.00
37170;BME280;23062;13.952;100.608;2022-07-29T21:21:06;1004.08;;;30.65;100.00
37170;BME280;23062;13.952;100.608;2022-07-29T21:25:57;1004.13;;;30.59;100.00
37170;BME280;23062;13.952;100.608;2022-07-29T21:30:47;1004.25;;;30.58;100.00
37170;BME280;23062;13.952;100.608;2022-07-29T21:35:37;1004.28;;;30.64;100.00
37170;BME280;23062;13.952;100.608;2022-07-29T21:40:26;1004.39;;;30.62;100.00
37170;BME280;23062;13.952;100.608;2022-07-29T21:45:17;1004.42;;;30.57;100.00
37170;BME280;23062;13.952;100.608;2022-07-29T21:50:08;1004.42;;;30.56;100.00
37170;BME280;23062;13.952;100.608;2022-07-29T21:54:59;1004.47;;;30.53;100.00
37170;BME280;23062;13.952;100.608;2022-07-29T21:59:50;1004.43;;;30.49;100.00
37170;BME280;23062;13.952;100.608;2022-07-29T22:04:40;1004.45;;;30.50;100.00
37170;BME280;23062;13.952;100.608;2022-07-29T22:09:29;1004.53;;;30.56;100.00
37170;BME280;23062;13.952;100.608;2022-07-29T22:14:19;1004.54;;;30.48;100.00
37170;BME280;23062;13.952;100.608;2022-07-29T22:19:09;1004.54;;;30.45;100.00
37170;BME280;23062;13.952;100.608;2022-07-29T22:24:00;1004.50;;;30.36;100.00
37170;BME280;23062;13.952;100.608;2022-07-29T22:28:50;1004.59;;;30.42;100.00
37170;BME280;23062;13.952;100.608;2022-07-29T22:33:40;1004.71;;;30.32;100.00
37170;BME280;23062;13.952;100.608;2022-07-29T22:38:30;1004.74;;;30.33;100.00
37170;BME280;23062;13.952;100.608;2022-07-29T22:43:20;1004.74;;;30.34;100.00
37170;BME280;23062;13.952;100.608;2022-07-29T22:48:10;1004.80;;;30.33;100.00
37170;BME280;23062;13.952;100.608;2022-07-29T22:53:00;1004.78;;;30.35;100.00
37170;BME280;23062;13.952;100.608;2022-07-29T22:57:49;1004.77;;;30.29;100.00
37170;BME280;23062;13.952;100.608;2022-07-29T23:02:39;1004.78;;;30.30;100.00
37170;BME280;23062;13.952;100.608;2022-07-29T23:07:30;1004.92;;;30.02;100.00
37170;BME280;23062;13.952;100.608;2022-07-29T23:12:20;1004.95;;;29.88;100.00
37170;BME280;23062;13.952;100.608;2022-07-29T23:17:10;1005.04;;;29.80;100.00
37170;BME280;23062;13.952;100.608;2022-07-29T23:21:59;1005.18;;;29.79;100.00
37170;BME280;23062;13.952;100.608;2022-07-29T23:26:50;1005.22;;;29.82;100.00
37170;BME280;23062;13.952;100.608;2022-07-29T23:31:41;1005.25;;;29.79;100.00
37170;BME280;23062;13.952;100.608;2022-07-29T23:36:31;1005.27;;;29.76;100.00
37170;BME280;23062;13.952;100.608;2022-07-29T23:41:21;1005.38;;;29.82;100.00
37170;BME280;23062;13.952;100.608;2022-07-29T23:46:10;1005.43;;;29.82;100.00
37170;BME280;23062;13.952;100.608;2022-07-29T23:51:00;1005.41;;;29.84;100.00
37170;BME280;23062;13.952;100.608;2022-07-29T23:55:50;1005.45;;;29.78;100.00
